サルタ の空港の天気 - METARとTAF

サルタ空港 ( SASA / SLA ) - アルゼンチン サルタ州、Salta
飛行場実況気象(Metar)
観測時間08/25 16:00 ART (08/25 19:00 UTC)
風向・風速北西 2m/s
視程10km以上
天気現象
なし
気温28℃
湿度22%
気圧1012hPa
METARSASA 251900Z 32003KT CAVOK 28/04 Q1012
過去の天気等 Google飛行場航空写真 Wunderground天気予報

過去48時間のMETAR

飛行場予報(TAF)
発表時間: 8/25 14:00 ART (8/25 17:00 UTC)
予報対象時間: 25日15時 ART ~ 26日15時 ART
風向・風速不定 2m/s
視程10km以上
なし
25日21時 ART ~ 25日24時 ART に徐々に
風向・風速不定 2m/s
視程10km以上
なし
TAF SASA 251700Z 2518/2618 VRB03KT CAVOK TX28/2618Z TN10/2610Z
BECMG 2600/2603 VRB03KT CAVOK